KILN/ILN METAR and TAF weather

Enter ICAO airport designator
Station Type Date Time Source
KILN METAR 2020/01/26 00:54 UTC NOAA

KILN 260054Z AUTO 25011KT 2 1/2SM -SN BR OVC008 01/M01 A2994 RMK AO2 SLP162 P0001 T00061006


Station Type Date Time Source
KILN Decoded METAR 2020/01/26 00:54 UTC NOAA

WILMINGTON INDUSTRIAL AIRPORT , OH, United States (KILN) 39-26N 083-47W 332M
Jan 25, 2020 - 07:54 PM EST / 2020.01.26 0054 UTC
Wind: from the WSW (250 degrees) at 13 MPH (11 KT):0
Visibility: 2 1/2 mile(s):0
Sky conditions: overcast
Weather: light snow; mist
Precipitation last hour: 0.01 inches
Temperature: 33.1 F (0.6 C)
Windchill: 23 F (-5 C):1
Dew Point: 30.9 F (-0.6 C)
Relative Humidity: 91%
Pressure (altimeter): 29.94 in. Hg (1013 hPa)
ob: KILN 260054Z AUTO 25011KT 2 1/2SM -SN BR OVC008 01/M01 A2994 RMK AO2 SLP162 P0001 T00061006
cycle: 1

Station Type Date Time Source
KILN TAF 2020/01/25 20:39 UTC NOAA

TAF
AMD KILN 251937Z 2520/2618 23013G19KT 3SM -RASN BR OVC015
TEMPO 2520/2522 2SM -SN BR OVC009
FM260000 24013G19KT 2SM -SN BR OVC006
FM260500 25012G17KT P6SM OVC008
FM261100 25009G15KT P6SM OVC009
FM261500 25009G15KT P6SM OVC011

Example: see airport list